map of LAQ home
Great Circle Mapper logo
LAQ - Airport
Location
City:  Beida, Libyan Arab Jamahiriya (Libya)
Name:La Braq
ICAO / IATA:HLLQ / LAQ

Details
Type:Airport (Aerodrome, Airfield)
Latitude:3247'19"N (32.788673)
Longitude:2157'52"E (21.964333)
Datum:WGS 1984
Elevation:2157 ft (657 m)
Runways:2
Longest:11824 × 148 ft (3604 × 45 m), paved

Time
Time Zone:UTC+2
Local Time:

Weather
TAF:HLLQ 190500Z 1906/2006 27015G25KT 8000 FEW025
BECMG 1907/1909 30012KT CAVOK
BECMG 1921/1923 VRB02KT

Related Locations
Nearby:
Farthest:MGS: 11680 mi / 18797 km
Mangaia Island (A'ua'u 'Enua), CK

Find:

   beyond  
but within

Other Information
Maps:
NOTAMs:
Links:
Sources:

  
flag of Libyan Arab Jamahiriya (Libya)   

Sectional Chart

Flight Planning
at skyvector.com

Satellite Image

Google Maps Satellite View

 

Copyright © 2004-2014 Karl L. Swartz. All rights reserved.
The Great Circle Mapper name and logo are trademarks of the Great Circle Mapper.
All other trademarks mentioned herein belong to their respective owners.
Please see credits for attibutions and further copyright information.

  Follow gcmap on Facebook Follow gcmap on Twitter

hCard Microformat

Geo Microformat